»·PEaware :: N485KB KGCN-KWJF

N485KB :: KGCN-KWJF

FLIGHT INFORMATION

Flight Status: Arrived
Operator: Privately registered:
United States
More flights under this callsign
Pilot: Alex S. (5)
Aircraft: MITSUBISHI F-86 SABRE
(F86)
More flights by this aircraft type
Origin: KGCN Grand Canyon Natl Park
United States
Destination: KWJF Gen Fox
United States
More flights between these airports :: More routes between these airports
Route: +PARKS2 PGS V210 HEC V12 PMD
File this flight plan on PilotEdge
Remarks:
Altitude:
(Current/Filed)
16,000ft
Speed:
(Current/Filed)
0kts
Departed: 10-Sep-11 06:13 PM
Arrived: 10-Sep-11 06:54 PM
Distance/Time
Traveled:
232nm/0:41
Distance/Time
To Go:
Arrived

Flight Plot

Page will automatically refresh every two minutes.


Map Options




Map Legend


Flown Route
Filed Route
Departure Airport
Arrival Airport
Navaid (VOR, NDB)
Fix

Horizontal Profiles

Position Reports

Time Latitude Longitude Heading Altitude Ground
Speed
10-Sep-11 18:09 35.959714 -112.136345 220 6614ft 0kts
10-Sep-11 18:10 35.959568 -112.137144 323 6614ft 6kts
10-Sep-11 18:11 35.960978 -112.136084 11 6614ft 11kts
10-Sep-11 18:12 35.950349 -112.148862 216 6616ft 154kts
10-Sep-11 18:13 35.910305 -112.199280 263 7312ft 267kts
10-Sep-11 18:14 35.926432 -112.294329 264 10196ft 295kts
10-Sep-11 18:15 35.902044 -112.395741 248 13445ft 304kts
10-Sep-11 18:16 35.877997 -112.498571 254 15767ft 332kts
10-Sep-11 18:17 35.851597 -112.621016 251 16041ft 421kts
10-Sep-11 18:18 35.815048 -112.773326 253 16087ft 501kts
10-Sep-11 18:19 35.773924 -112.946588 251 16231ft 558kts
10-Sep-11 18:20 35.726000 -113.136575 251 16105ft 604kts
10-Sep-11 18:21 35.677123 -113.322583 251 15942ft 624kts
10-Sep-11 18:22 35.626990 -113.521405 250 15691ft 620kts
10-Sep-11 18:23 35.568596 -113.706348 248 15850ft 612kts
10-Sep-11 18:24 35.513960 -113.899202 250 15765ft 608kts
10-Sep-11 18:25 35.461122 -114.094837 249 15987ft 601kts
10-Sep-11 18:26 35.407083 -114.288024 250 16153ft 600kts
10-Sep-11 18:27 35.352237 -114.472033 250 16060ft 600kts
10-Sep-11 18:28 35.300003 -114.650018 252 16026ft 594kts
10-Sep-11 18:29 35.235703 -114.838560 249 15668ft 605kts
10-Sep-11 18:30 35.170635 -115.028703 252 16004ft 606kts
10-Sep-11 18:32 35.073265 -115.387692 257 16206ft 613kts
10-Sep-11 18:33 35.026688 -115.578839 256 15785ft 618kts
10-Sep-11 18:34 34.979238 -115.769785 252 15704ft 594kts
10-Sep-11 18:35 34.935997 -115.962033 252 16275ft 604kts
10-Sep-11 18:36 34.884921 -116.192627 252 16293ft 628kts
10-Sep-11 18:37 34.846215 -116.360618 249 16226ft 636kts
10-Sep-11 18:38 34.790037 -116.559102 254 16186ft 647kts
10-Sep-11 18:39 34.763520 -116.772790 264 16187ft 652kts
10-Sep-11 18:40 34.742875 -116.989541 265 16318ft 649kts
10-Sep-11 18:41 34.722049 -117.203959 264 16288ft 654kts
10-Sep-11 18:42 34.698197 -117.412279 263 14304ft 559kts
10-Sep-11 18:43 34.677692 -117.559229 266 7885ft 343kts
10-Sep-11 18:44 34.670174 -117.667328 265 8090ft 334kts
10-Sep-11 18:45 34.659628 -117.776259 265 8195ft 326kts
10-Sep-11 18:46 34.648908 -117.880112 264 8043ft 301kts
10-Sep-11 18:47 34.638754 -117.972411 266 7896ft 295kts
10-Sep-11 18:48 34.641213 -118.059327 285 7884ft 275kts
10-Sep-11 18:49 34.676007 -118.125287 312 7528ft 227kts
10-Sep-11 18:50 34.717603 -118.181241 310 4498ft 228kts
10-Sep-11 18:51 34.755345 -118.215459 46 3100ft 140kts
10-Sep-11 18:52 34.743371 -118.209988 250 2366ft 142kts
10-Sep-11 18:53 34.737957 -118.229701 229 2356ft 23kts
10-Sep-11 18:54 34.737429 -118.228923 73 2356ft 20kts
10-Sep-11 18:55 34.738451 -118.221787 171 2356ft 0kts
10-Sep-11 18:56 34.738451 -118.221787 171 2356ft 0kts
10-Sep-11 18:57 34.738451 -118.221787 171 2356ft 0kts
10-Sep-11 18:58 34.738451 -118.221787 171 2356ft 0kts
10-Sep-11 18:59 32.660576 -114.594623 360 218ft 0kts

Navigation Log

Ident Type
Flight plan parsing failed, navigation log unavailable